createdAt,value
2022-08-14T00:00:20.471Z,21.76
2022-08-14T00:03:29.164Z,21.74
2022-08-14T00:06:33.450Z,21.75
2022-08-14T00:09:40.036Z,21.74
2022-08-14T00:13:01.547Z,21.73
2022-08-14T00:16:41.470Z,21.73
2022-08-14T00:19:38.045Z,21.71
2022-08-14T00:22:56.580Z,21.69
2022-08-14T00:26:06.047Z,21.66
2022-08-14T00:29:11.407Z,21.63
2022-08-14T00:32:51.658Z,21.61
2022-08-14T00:36:37.491Z,21.62
2022-08-14T00:39:02.686Z,21.63
2022-08-14T00:42:21.446Z,21.61
2022-08-14T00:45:35.820Z,21.58
2022-08-14T00:48:40.166Z,21.59
2022-08-14T00:51:46.113Z,21.57
2022-08-14T00:54:57.649Z,21.56
2022-08-14T00:58:19.782Z,21.54
2022-08-14T01:01:39.227Z,21.53
2022-08-14T01:04:53.941Z,21.49
2022-08-14T01:07:59.693Z,21.44
2022-08-14T01:11:06.524Z,21.41
2022-08-14T01:14:25.212Z,21.37
2022-08-14T01:17:51.889Z,21.31
2022-08-14T01:21:11.959Z,21.29
2022-08-14T01:24:28.782Z,21.24
2022-08-14T01:27:53.504Z,21.21
2022-08-14T01:31:01.653Z,21.15
2022-08-14T01:35:18.573Z,21.13
2022-08-14T01:37:32.137Z,21.06
2022-08-14T01:40:42.132Z,21.04
2022-08-14T01:43:56.636Z,21.00
2022-08-14T01:47:05.844Z,20.95
2022-08-14T01:50:11.596Z,20.91
2022-08-14T01:53:18.343Z,20.88
2022-08-14T01:56:37.242Z,20.83
2022-08-14T01:59:44.661Z,20.80
2022-08-14T02:02:48.517Z,20.73
2022-08-14T02:06:03.649Z,20.63
2022-08-14T02:09:23.607Z,20.52
2022-08-14T02:12:30.968Z,20.51
2022-08-14T02:15:35.230Z,20.57
2022-08-14T02:18:39.968Z,20.49
2022-08-14T02:21:49.038Z,20.50
2022-08-14T02:24:54.407Z,20.53
2022-08-14T02:28:24.523Z,20.54
2022-08-14T02:31:36.078Z,20.58
2022-08-14T02:34:47.292Z,20.59
2022-08-14T02:37:51.379Z,20.61
2022-08-14T02:40:55.539Z,20.61
2022-08-14T02:44:01.309Z,20.58
2022-08-14T02:47:14.662Z,20.56
2022-08-14T02:50:20.311Z,20.58
2022-08-14T02:53:31.237Z,20.57
2022-08-14T02:57:13.740Z,20.54
2022-08-14T03:00:03.646Z,20.56
2022-08-14T03:03:12.802Z,20.58
2022-08-14T03:06:20.533Z,20.58
2022-08-14T03:10:24.354Z,20.58
2022-08-14T03:13:04.472Z,20.59
2022-08-14T03:16:20.381Z,20.60
2022-08-14T03:19:30.684Z,20.60
2022-08-14T03:22:34.875Z,20.59
2022-08-14T03:25:38.739Z,20.57
2022-08-14T03:28:46.643Z,20.58
2022-08-14T03:31:52.127Z,20.55
2022-08-14T03:34:58.439Z,20.54
2022-08-14T03:39:12.463Z,20.50
2022-08-14T03:41:33.280Z,20.46
2022-08-14T03:45:19.434Z,20.42
2022-08-14T03:48:11.064Z,20.36
2022-08-14T03:51:29.832Z,20.30
2022-08-14T03:54:35.038Z,20.26
2022-08-14T03:57:40.539Z,20.24
2022-08-14T04:00:46.306Z,20.24
2022-08-14T04:03:54.916Z,20.21
2022-08-14T04:07:00.873Z,20.17
2022-08-14T04:10:04.943Z,20.16
2022-08-14T04:13:08.671Z,20.15
2022-08-14T04:16:18.051Z,20.10
2022-08-14T04:19:23.964Z,20.08
2022-08-14T04:22:28.324Z,20.08
2022-08-14T04:25:33.918Z,20.03
2022-08-14T04:29:02.171Z,20.04
2022-08-14T04:33:00.411Z,20.04
2022-08-14T04:35:27.783Z,20.00
2022-08-14T04:39:08.658Z,20.01
2022-08-14T04:42:32.967Z,20.02
2022-08-14T04:45:40.782Z,20.05
2022-08-14T04:48:51.260Z,20.10
2022-08-14T04:52:04.201Z,20.06
2022-08-14T04:55:19.424Z,20.07
2022-08-14T04:58:32.369Z,20.09
2022-08-14T05:01:39.984Z,20.16
2022-08-14T05:04:45.527Z,20.13
2022-08-14T05:08:32.170Z,20.16
2022-08-14T05:11:36.695Z,20.21
2022-08-14T05:14:45.674Z,20.25
2022-08-14T05:17:53.951Z,20.37
2022-08-14T05:21:56.335Z,20.39
2022-08-14T05:24:35.210Z,20.47
2022-08-14T05:27:41.044Z,20.57
2022-08-14T05:30:44.726Z,20.71
2022-08-14T05:33:56.964Z,20.92
2022-08-14T05:37:03.168Z,21.16
2022-08-14T05:40:11.138Z,21.41
2022-08-14T05:43:18.744Z,21.84
2022-08-14T05:46:23.871Z,22.02
2022-08-14T05:49:33.154Z,22.46
2022-08-14T05:52:48.999Z,22.83
2022-08-14T05:55:55.370Z,23.11
2022-08-14T05:59:00.639Z,23.20
2022-08-14T06:02:05.965Z,23.46
2022-08-14T06:05:13.018Z,23.40
2022-08-14T06:08:41.047Z,23.27
2022-08-14T06:11:49.718Z,23.57
2022-08-14T06:14:53.539Z,23.57
2022-08-14T06:17:59.274Z,23.57
2022-08-14T06:21:03.555Z,23.81
2022-08-14T06:24:18.005Z,23.69
2022-08-14T06:27:23.873Z,23.65
2022-08-14T06:30:46.541Z,23.76
2022-08-14T06:35:11.553Z,23.80
2022-08-14T06:37:17.125Z,23.45
2022-08-14T06:40:26.731Z,23.28
2022-08-14T06:43:33.319Z,23.33
2022-08-14T06:46:37.770Z,23.66
2022-08-14T06:49:48.459Z,23.93
2022-08-14T06:52:53.254Z,24.13
2022-08-14T06:56:02.242Z,24.12
2022-08-14T06:59:07.547Z,23.95
2022-08-14T07:02:43.769Z,24.08
2022-08-14T07:05:55.954Z,24.12
2022-08-14T07:09:02.104Z,24.31
2022-08-14T07:12:07.893Z,24.51
2022-08-14T07:15:13.596Z,24.91
2022-08-14T07:18:21.099Z,25.14
2022-08-14T07:21:25.181Z,25.21
2022-08-14T07:24:31.431Z,25.18
2022-08-14T07:27:36.090Z,25.45
2022-08-14T07:30:51.570Z,25.47
2022-08-14T07:33:55.712Z,25.73
2022-08-14T07:37:01.188Z,25.79
2022-08-14T07:40:07.912Z,25.87
2022-08-14T07:43:14.638Z,26.08
2022-08-14T07:46:21.227Z,26.02
2022-08-14T07:49:34.478Z,25.73
2022-08-14T07:52:40.375Z,25.49
2022-08-14T07:56:08.836Z,25.07
2022-08-14T07:59:10.961Z,25.08
2022-08-14T08:02:20.519Z,25.34
2022-08-14T08:05:27.873Z,25.54
2022-08-14T08:08:32.832Z,25.76
2022-08-14T08:11:38.056Z,25.90
2022-08-14T08:14:56.064Z,26.18
2022-08-14T08:18:04.098Z,26.60
2022-08-14T08:21:08.529Z,26.99
2022-08-14T08:24:12.518Z,26.84
2022-08-14T08:27:22.259Z,27.71
2022-08-14T08:30:29.532Z,28.28
2022-08-14T08:33:38.656Z,28.79
2022-08-14T08:36:46.584Z,29.04
2022-08-14T08:40:02.660Z,28.32
2022-08-14T08:43:10.181Z,27.98
2022-08-14T08:46:23.318Z,28.44
2022-08-14T08:49:52.640Z,27.89
2022-08-14T08:53:07.747Z,27.96
2022-08-14T08:56:30.250Z,28.17
2022-08-14T08:59:36.721Z,28.63
2022-08-14T09:02:57.565Z,28.73
2022-08-14T09:07:01.427Z,29.36
2022-08-14T09:09:33.958Z,29.31
2022-08-14T09:12:57.470Z,29.44
2022-08-14T09:16:18.692Z,28.65
2022-08-14T09:19:23.604Z,28.08
2022-08-14T09:22:34.938Z,28.02
2022-08-14T09:26:00.276Z,28.33
2022-08-14T09:29:08.461Z,29.18
2022-08-14T09:32:58.909Z,29.63
2022-08-14T09:36:15.531Z,29.64
2022-08-14T09:39:44.013Z,29.63
2022-08-14T09:43:03.760Z,28.84
2022-08-14T09:46:09.711Z,28.85
2022-08-14T09:49:16.406Z,28.80
2022-08-14T09:52:23.831Z,28.89
2022-08-14T09:55:42.718Z,28.48
2022-08-14T09:58:49.159Z,28.33
2022-08-14T10:01:53.498Z,28.51
2022-08-14T10:05:08.674Z,28.58
2022-08-14T10:08:26.439Z,28.36
2022-08-14T10:11:36.060Z,28.63
2022-08-14T10:14:39.814Z,28.48
2022-08-14T10:17:44.094Z,28.41
2022-08-14T10:20:59.137Z,28.51
2022-08-14T10:24:09.551Z,28.70
2022-08-14T10:27:20.044Z,28.94
2022-08-14T10:30:25.535Z,28.82
2022-08-14T10:33:32.906Z,28.73
2022-08-14T10:36:41.318Z,29.09
2022-08-14T10:40:10.550Z,28.76
2022-08-14T10:43:27.733Z,28.71
2022-08-14T10:47:39.554Z,29.12
2022-08-14T10:50:14.728Z,28.64
2022-08-14T10:53:29.829Z,28.85
2022-08-14T10:56:36.758Z,29.18
2022-08-14T10:59:48.162Z,29.07
2022-08-14T11:03:02.642Z,28.82
2022-08-14T11:06:20.040Z,28.64
2022-08-14T11:09:25.938Z,28.87
2022-08-14T11:12:46.647Z,29.04
2022-08-14T11:15:54.495Z,28.86
2022-08-14T11:19:00.980Z,29.03
2022-08-14T11:22:06.660Z,28.86
2022-08-14T11:25:21.385Z,28.91
2022-08-14T11:28:47.683Z,29.16
2022-08-14T11:31:56.755Z,29.03
2022-08-14T11:35:02.842Z,29.11
2022-08-14T11:38:09.123Z,29.10
2022-08-14T11:41:17.321Z,29.56
2022-08-14T11:44:45.374Z,29.65
2022-08-14T11:48:13.292Z,29.61
2022-08-14T11:51:24.056Z,29.84
2022-08-14T11:54:34.339Z,29.98
2022-08-14T11:57:39.609Z,29.90
2022-08-14T12:00:54.668Z,30.16
2022-08-14T12:04:21.519Z,30.17
2022-08-14T12:07:42.984Z,29.87
2022-08-14T12:10:58.984Z,29.79
2022-08-14T12:14:13.541Z,30.06
2022-08-14T12:17:49.357Z,30.42
2022-08-14T12:21:00.006Z,30.32
2022-08-14T12:24:08.690Z,30.11
2022-08-14T12:27:17.035Z,30.28
2022-08-14T12:30:35.972Z,30.51
2022-08-14T12:33:46.943Z,30.62
2022-08-14T12:37:07.061Z,30.78
2022-08-14T12:40:19.616Z,30.76
2022-08-14T12:43:25.881Z,30.23
2022-08-14T12:46:37.820Z,30.09
2022-08-14T12:49:53.457Z,30.30
2022-08-14T12:53:13.848Z,30.49
2022-08-14T12:56:29.709Z,30.71
2022-08-14T12:59:43.202Z,30.81
2022-08-14T13:02:55.285Z,30.52
2022-08-14T13:06:00.558Z,30.49
2022-08-14T13:09:11.366Z,30.51
2022-08-14T13:12:33.186Z,30.73
2022-08-14T13:15:45.355Z,30.55
2022-08-14T13:18:57.575Z,30.89
2022-08-14T13:22:05.011Z,30.79
2022-08-14T13:25:21.528Z,30.98
2022-08-14T13:28:33.022Z,31.18
2022-08-14T13:31:40.331Z,30.93
2022-08-14T13:34:46.071Z,30.87
2022-08-14T13:37:53.766Z,31.05
2022-08-14T13:41:01.264Z,30.88
2022-08-14T13:44:13.660Z,30.89
2022-08-14T13:47:32.212Z,30.49
2022-08-14T13:50:39.851Z,30.66
2022-08-14T13:54:08.237Z,30.86
2022-08-14T13:57:18.955Z,31.11
2022-08-14T14:00:32.614Z,30.99
2022-08-14T14:03:42.247Z,31.07
2022-08-14T14:06:51.067Z,31.06
2022-08-14T14:10:06.182Z,31.45
2022-08-14T14:13:12.346Z,31.47
2022-08-14T14:16:26.218Z,31.63
2022-08-14T14:19:46.499Z,31.38
2022-08-14T14:23:02.806Z,31.33
2022-08-14T14:26:13.931Z,31.58
2022-08-14T14:29:26.319Z,31.25
2022-08-14T14:32:34.092Z,31.52
2022-08-14T14:35:39.849Z,31.67
2022-08-14T14:38:48.346Z,31.93
2022-08-14T14:41:57.635Z,31.74
2022-08-14T14:45:09.675Z,31.81
2022-08-14T14:48:15.567Z,31.88
2022-08-14T14:51:22.044Z,32.14
2022-08-14T14:54:31.658Z,31.97
2022-08-14T14:57:36.824Z,31.76
2022-08-14T15:00:45.036Z,31.69
2022-08-14T15:03:49.848Z,31.93
2022-08-14T15:06:58.664Z,32.09
2022-08-14T15:10:03.897Z,31.61
2022-08-14T15:13:08.435Z,31.32
2022-08-14T15:16:14.962Z,31.39
2022-08-14T15:19:23.551Z,31.37
2022-08-14T15:22:29.051Z,31.22
2022-08-14T15:25:36.480Z,31.29
2022-08-14T15:28:43.682Z,31.05
2022-08-14T15:31:53.401Z,30.85
2022-08-14T15:34:58.034Z,30.76
2022-08-14T15:38:08.433Z,30.74
2022-08-14T15:41:13.881Z,30.71
2022-08-14T15:44:25.730Z,30.57
2022-08-14T15:47:35.006Z,30.53
2022-08-14T15:50:45.589Z,30.39
2022-08-14T15:53:52.858Z,30.43
2022-08-14T15:57:02.270Z,30.61
2022-08-14T16:00:40.801Z,30.85
2022-08-14T16:03:49.587Z,30.68
2022-08-14T16:06:55.629Z,30.80
2022-08-14T16:10:27.296Z,30.57
2022-08-14T16:13:41.952Z,30.62
2022-08-14T16:16:51.582Z,30.62
2022-08-14T16:20:07.339Z,30.22
2022-08-14T16:23:12.803Z,30.07
2022-08-14T16:26:19.894Z,29.85
2022-08-14T16:29:23.681Z,29.77
2022-08-14T16:32:27.467Z,29.70
2022-08-14T16:35:59.636Z,29.65
2022-08-14T16:39:07.319Z,29.69
2022-08-14T16:42:39.163Z,29.67
2022-08-14T16:45:43.708Z,29.57
2022-08-14T16:48:57.155Z,29.48
2022-08-14T16:52:25.058Z,29.33
2022-08-14T16:55:30.750Z,29.33
2022-08-14T16:58:35.217Z,29.31
2022-08-14T17:01:45.872Z,29.27
2022-08-14T17:04:49.807Z,29.23
2022-08-14T17:08:41.614Z,29.30
2022-08-14T17:11:56.247Z,29.23
2022-08-14T17:15:10.563Z,29.22
2022-08-14T17:18:22.413Z,29.19
2022-08-14T17:21:41.721Z,29.23
2022-08-14T17:24:56.167Z,29.19
2022-08-14T17:28:49.926Z,29.07
2022-08-14T17:31:57.880Z,29.02
2022-08-14T17:35:06.052Z,28.95
2022-08-14T17:38:39.359Z,28.83
2022-08-14T17:42:02.798Z,28.76
2022-08-14T17:45:07.827Z,28.60
2022-08-14T17:49:14.020Z,28.47
2022-08-14T17:52:16.840Z,28.38
2022-08-14T17:56:03.477Z,28.30
2022-08-14T17:58:50.817Z,28.25
2022-08-14T18:02:00.585Z,28.21
2022-08-14T18:05:09.151Z,28.20
2022-08-14T18:08:33.302Z,28.13
2022-08-14T18:11:46.219Z,28.04
2022-08-14T18:14:53.555Z,27.97
2022-08-14T18:17:59.248Z,27.90
2022-08-14T18:21:40.115Z,27.85
2022-08-14T18:24:32.308Z,27.77
2022-08-14T18:27:41.797Z,27.66
2022-08-14T18:30:58.730Z,27.58
2022-08-14T18:34:31.070Z,27.50
2022-08-14T18:37:39.210Z,27.48
2022-08-14T18:40:45.433Z,27.42
2022-08-14T18:43:59.212Z,27.35
2022-08-14T18:47:26.229Z,27.25
2022-08-14T18:50:31.272Z,27.17
2022-08-14T18:54:09.998Z,27.11
2022-08-14T18:57:14.477Z,27.02
2022-08-14T19:00:56.242Z,26.93
2022-08-14T19:04:04.584Z,26.85
2022-08-14T19:07:23.053Z,26.77
2022-08-14T19:10:37.597Z,26.65
2022-08-14T19:13:48.219Z,26.59
2022-08-14T19:16:55.175Z,26.56
2022-08-14T19:20:08.748Z,26.53
2022-08-14T19:23:18.963Z,26.47
2022-08-14T19:26:36.932Z,26.40
2022-08-14T19:30:20.183Z,26.34
2022-08-14T19:33:53.667Z,26.24
2022-08-14T19:37:08.759Z,26.18
2022-08-14T19:40:19.381Z,26.14
2022-08-14T19:43:55.368Z,26.07
2022-08-14T19:47:01.837Z,26.02
2022-08-14T19:50:38.924Z,25.97
2022-08-14T19:53:34.695Z,25.89
2022-08-14T19:56:40.096Z,25.83
2022-08-14T19:59:57.285Z,25.81
2022-08-14T20:03:12.002Z,25.76
2022-08-14T20:06:19.194Z,25.68
2022-08-14T20:11:08.124Z,25.61
2022-08-14T20:12:59.207Z,25.55
2022-08-14T20:16:12.351Z,25.47
2022-08-14T20:19:22.412Z,25.41
2022-08-14T20:22:38.934Z,25.34
2022-08-14T20:25:56.709Z,25.28
2022-08-14T20:29:04.737Z,25.23
2022-08-14T20:32:08.822Z,25.21
2022-08-14T20:35:35.739Z,25.16
2022-08-14T20:38:40.004Z,25.09
2022-08-14T20:42:19.068Z,25.04
2022-08-14T20:45:42.373Z,25.03
2022-08-14T20:49:02.456Z,24.96
2022-08-14T20:52:18.957Z,24.86
2022-08-14T20:55:32.223Z,24.78
2022-08-14T20:58:44.137Z,24.71
2022-08-14T21:01:55.104Z,24.63
2022-08-14T21:05:02.701Z,24.57
2022-08-14T21:08:08.329Z,24.54
2022-08-14T21:11:18.276Z,24.47
2022-08-14T21:14:28.384Z,24.43
2022-08-14T21:17:37.375Z,24.41
2022-08-14T21:20:42.432Z,24.38
2022-08-14T21:23:54.758Z,24.32
2022-08-14T21:27:12.162Z,24.32
2022-08-14T21:30:46.848Z,24.26
2022-08-14T21:33:48.558Z,24.23
2022-08-14T21:37:07.743Z,24.20
2022-08-14T21:40:39.999Z,24.23
2022-08-14T21:43:39.719Z,24.13
2022-08-14T21:46:50.051Z,24.10
2022-08-14T21:49:55.349Z,24.06
2022-08-14T21:53:03.611Z,24.01
2022-08-14T21:56:11.505Z,24.00
2022-08-14T21:59:22.467Z,23.96
2022-08-14T22:02:32.967Z,23.89
2022-08-14T22:05:40.537Z,23.88
2022-08-14T22:08:46.054Z,23.87
2022-08-14T22:11:56.647Z,23.86
2022-08-14T22:15:01.882Z,23.84
2022-08-14T22:18:06.968Z,23.80
2022-08-14T22:21:16.762Z,23.78
2022-08-14T22:24:25.862Z,23.80
2022-08-14T22:27:55.354Z,23.79
2022-08-14T22:30:59.962Z,23.81
2022-08-14T22:34:05.243Z,23.84
2022-08-14T22:37:10.613Z,23.84
2022-08-14T22:40:14.759Z,23.85
2022-08-14T22:43:38.950Z,23.84
2022-08-14T22:46:45.188Z,23.84
2022-08-14T22:50:29.190Z,23.84
2022-08-14T22:53:14.116Z,23.84
2022-08-14T22:56:20.334Z,23.83
2022-08-14T22:59:36.640Z,23.81
2022-08-14T23:02:43.849Z,23.78
2022-08-14T23:05:52.988Z,23.77
2022-08-14T23:09:35.442Z,23.77
2022-08-14T23:12:28.801Z,23.80
2022-08-14T23:15:35.274Z,23.75
2022-08-14T23:18:41.227Z,23.70
2022-08-14T23:21:46.147Z,23.69
2022-08-14T23:24:52.980Z,23.66
2022-08-14T23:28:03.433Z,23.64
2022-08-14T23:31:12.464Z,23.60
2022-08-14T23:34:21.446Z,23.60
2022-08-14T23:37:27.191Z,23.57
2022-08-14T23:40:32.940Z,23.54
2022-08-14T23:43:39.028Z,23.48
2022-08-14T23:46:44.196Z,23.44
2022-08-14T23:49:56.578Z,23.38
2022-08-14T23:53:28.371Z,23.27
2022-08-14T23:56:48.945Z,23.20
